Terminal Aerodrome Forecast
Issued by NWS

Home | Current Version | Previous Version | Text Only | Print | Product List | Glossary On
Versions: 1 2 3 4 5 6 7 8 9 10 11 12 13 14 15 16 17 18 19 20 21 22 23 24 25 26 27 28 29 30 31 32 33 34 35 36 37 38 39 40
733
FTUS46 KMTR 131649 AAB
TAFSTS
TAF AMD
KSTS 131649Z 1317/1412 00000KT P6SM OVC004
     FM131800 VRB03KT 3SM -RA BR OVC006
     FM132000 VRB03KT 3SM -RA BR OVC012
      TEMPO 1321/1401 2SM RA BR OVC006
     FM140600 24003KT 4SM BR OVC007
     FM140900 VRB03KT 1/2SM FG OVC003=

USA.gov is the U.S. government's official web portal to all federal, state and local government web resources and services.